Stolt Spray — ZCSQ9 — position and weather

sailwx.info

Track history (hours):
 
Tides and Currents Weather Stations Pressure Air Temp Water Temp Dewpoint Dewpoint Depression Visibility Wind Speed Wind Dir Waves Ship Positions

Stolt Spray

Last reported at 2014-Aug-02 05:33 UTC. Time now 2014-Sep-02 23:49 UTC.
Position N 29°31' W 094°53'.
Warning: this ship's position is 31 days out of date.

Length 163 m; draft 9.8 m.

Type: Ship (hazmat cat A). MMSI: 319591000.

Date/timePositionNaut miles runAvg speedWind from/ knotsBaromVisibWave heightAir tempDewpointWater temp
2014-Aug-02 05:33N 29°31' W 094°53'9 9.4
2014-Aug-02 04:33N 29°37' W 095°01'0 0.3
2014-Aug-02 03:29N 29°37' W 095°01'0 0.0
2014-Aug-02 00:32N 29°37' W 095°01'0 0.0
2014-Aug-01 23:32N 29°37' W 095°01'0 0.0
2014-Aug-01 22:32N 29°37' W 095°01'0 0.0
2014-Aug-01 21:32N 29°37' W 095°01'0 0.0
2014-Aug-01 20:32N 29°37' W 095°01'0 0.0
2014-Aug-01 19:32N 29°37' W 095°01'0 0.0
2014-Aug-01 18:32N 29°37' W 095°01'0 0.0
2014-Aug-01 17:32N 29°37' W 095°01'0 0.0
2014-Aug-01 16:32N 29°37' W 095°01'0 0.0
2014-Aug-01 15:32N 29°37' W 095°01'0 0.0
2014-Aug-01 14:32N 29°37' W 095°01'0 0.0
2014-Aug-01 13:32N 29°37' W 095°01'0 0.0
2014-Aug-01 12:32N 29°37' W 095°01'0 0.0
2014-Aug-01 11:32N 29°37' W 095°01'0 0.0
2014-Aug-01 10:29N 29°37' W 095°01'0 0.0
2014-Aug-01 09:29N 29°37' W 095°01'0 0.0
2014-Aug-01 08:32N 29°37' W 095°01'0 0.0
2014-Aug-01 07:29N 29°37' W 095°01'0 0.0
2014-Aug-01 06:32N 29°37' W 095°01'0 0.0
2014-Aug-01 05:32N 29°37' W 095°01'0 0.0
2014-Aug-01 04:32N 29°37' W 095°01'0 0.2
2014-Aug-01 03:34N 29°37' W 095°01'5 5.0
2014-Aug-01 02:33N 29°35' W 094°56'1211.9
2014-Aug-01 01:32N 29°24' W 094°49'5 0.1
2014-Jul-30 05:11N 29°28' W 094°51'812.9
2014-Jul-30 04:33N 29°35' W 094°56'10 9.8
2014-Jul-30 03:33N 29°44' W 095°02'5 5.3
2014-Jul-30 02:34N 29°44' W 095°08'0 0.1
2014-Jul-30 00:05N 29°44' W 095°08'0 0.0
2014-Jul-29 23:29N 29°44' W 095°08'0 0.0
2014-Jul-29 22:17N 29°44' W 095°08'0 0.0
2014-Jul-29 21:11N 29°44' W 095°08'0 0.0
2014-Jul-29 20:20N 29°44' W 095°08'0 0.0
2014-Jul-29 16:14N 29°44' W 095°08'0 0.0
2014-Jul-29 15:26N 29°44' W 095°08'0 0.0
2014-Jul-29 14:32N 29°44' W 095°08'0 0.0
2014-Jul-29 13:32N 29°44' W 095°08'0 0.0
2014-Jul-29 12:32N 29°44' W 095°08'0 0.0
2014-Jul-29 11:20N 29°44' W 095°08'0 0.0
2014-Jul-29 10:32N 29°44' W 095°08'3 2.9
2014-Jul-29 09:34N 29°46' W 095°05'8 8.2
2014-Jul-29 08:33N 29°40' W 094°59'1312.6
2014-Jul-29 07:33N 29°29' W 094°52'1110.7
2014-Jul-29 06:33N 29°21' W 094°44'9 9.1
2014-Jul-29 05:32N 29°18' W 094°33'0 0.1
2014-Jul-29 04:33N 29°18' W 094°33'  
2014-Jul-24 11:23N 30°02' W 090°50'1010.7
2014-Jul-24 10:25N 30°07' W 091°01'  
Track history (hours):
 
Tides and Currents Weather Stations Pressure Air Temp Water Temp Dewpoint Dewpoint Depression Visibility Wind Speed Wind Dir Waves Ship Positions

Stolt Spray

Last reported at 2014-Aug-02 05:33 UTC. Time now 2014-Sep-02 23:49 UTC.
Position N 29°31' W 094°53'.
Warning: this ship's position is 31 days out of date.

Length 163 m; draft 9.8 m.

Type: Ship (hazmat cat A). MMSI: 319591000.

Date/timePositionNaut miles runAvg speedWind from/ knotsBaromVisibWave heightAir tempDewpointWater temp
2014-Aug-02 05:33N 29°31' W 094°53'9 9.4
2014-Aug-02 04:33N 29°37' W 095°01'0 0.3
2014-Aug-02 03:29N 29°37' W 095°01'0 0.0
2014-Aug-02 00:32N 29°37' W 095°01'0 0.0
2014-Aug-01 23:32N 29°37' W 095°01'0 0.0
2014-Aug-01 22:32N 29°37' W 095°01'0 0.0
2014-Aug-01 21:32N 29°37' W 095°01'0 0.0
2014-Aug-01 20:32N 29°37' W 095°01'0 0.0
2014-Aug-01 19:32N 29°37' W 095°01'0 0.0
2014-Aug-01 18:32N 29°37' W 095°01'0 0.0
2014-Aug-01 17:32N 29°37' W 095°01'0 0.0
2014-Aug-01 16:32N 29°37' W 095°01'0 0.0
2014-Aug-01 15:32N 29°37' W 095°01'0 0.0
2014-Aug-01 14:32N 29°37' W 095°01'0 0.0
2014-Aug-01 13:32N 29°37' W 095°01'0 0.0
2014-Aug-01 12:32N 29°37' W 095°01'0 0.0
2014-Aug-01 11:32N 29°37' W 095°01'0 0.0
2014-Aug-01 10:29N 29°37' W 095°01'0 0.0
2014-Aug-01 09:29N 29°37' W 095°01'0 0.0
2014-Aug-01 08:32N 29°37' W 095°01'0 0.0
2014-Aug-01 07:29N 29°37' W 095°01'0 0.0
2014-Aug-01 06:32N 29°37' W 095°01'0 0.0
2014-Aug-01 05:32N 29°37' W 095°01'0 0.0
2014-Aug-01 04:32N 29°37' W 095°01'0 0.2
2014-Aug-01 03:34N 29°37' W 095°01'5 5.0
2014-Aug-01 02:33N 29°35' W 094°56'1211.9
2014-Aug-01 01:32N 29°24' W 094°49'5 0.1
2014-Jul-30 05:11N 29°28' W 094°51'812.9
2014-Jul-30 04:33N 29°35' W 094°56'10 9.8
2014-Jul-30 03:33N 29°44' W 095°02'5 5.3
2014-Jul-30 02:34N 29°44' W 095°08'0 0.1
2014-Jul-30 00:05N 29°44' W 095°08'0 0.0
2014-Jul-29 23:29N 29°44' W 095°08'0 0.0
2014-Jul-29 22:17N 29°44' W 095°08'0 0.0
2014-Jul-29 21:11N 29°44' W 095°08'0 0.0
2014-Jul-29 20:20N 29°44' W 095°08'0 0.0
2014-Jul-29 16:14N 29°44' W 095°08'0 0.0
2014-Jul-29 15:26N 29°44' W 095°08'0 0.0
2014-Jul-29 14:32N 29°44' W 095°08'0 0.0
2014-Jul-29 13:32N 29°44' W 095°08'0 0.0
2014-Jul-29 12:32N 29°44' W 095°08'0 0.0
2014-Jul-29 11:20N 29°44' W 095°08'0 0.0
2014-Jul-29 10:32N 29°44' W 095°08'3 2.9
2014-Jul-29 09:34N 29°46' W 095°05'8 8.2
2014-Jul-29 08:33N 29°40' W 094°59'1312.6
2014-Jul-29 07:33N 29°29' W 094°52'1110.7
2014-Jul-29 06:33N 29°21' W 094°44'9 9.1
2014-Jul-29 05:32N 29°18' W 094°33'0 0.1
2014-Jul-29 04:33N 29°18' W 094°33'  
2014-Jul-24 11:23N 30°02' W 090°50'1010.7
2014-Jul-24 10:25N 30°07' W 091°01'  

Dump ship's entire track history